sensor_id;sensor_type;location;lat;lon;timestamp;P1;durP1;ratioP1;P2;durP2;ratioP2
17991;SDS011;9121;50.926;5.340;2022-10-03T00:01:22;19.53;;;5.97;;
17991;SDS011;9121;50.926;5.340;2022-10-03T00:04:15;23.37;;;6.43;;
17991;SDS011;9121;50.926;5.340;2022-10-03T00:07:00;19.23;;;6.20;;
17991;SDS011;9121;50.926;5.340;2022-10-03T00:09:40;29.20;;;6.80;;
17991;SDS011;9121;50.926;5.340;2022-10-03T00:12:33;23.17;;;7.97;;
17991;SDS011;9121;50.926;5.340;2022-10-03T00:15:12;18.50;;;6.43;;
17991;SDS011;9121;50.926;5.340;2022-10-03T00:17:48;24.03;;;6.67;;
17991;SDS011;9121;50.926;5.340;2022-10-03T00:23:17;18.40;;;6.87;;
17991;SDS011;9121;50.926;5.340;2022-10-03T00:25:53;18.37;;;6.90;;
17991;SDS011;9121;50.926;5.340;2022-10-03T00:28:50;22.17;;;7.17;;
17991;SDS011;9121;50.926;5.340;2022-10-03T00:31:32;23.20;;;7.30;;
17991;SDS011;9121;50.926;5.340;2022-10-03T00:34:08;18.60;;;7.47;;
17991;SDS011;9121;50.926;5.340;2022-10-03T00:37:05;23.90;;;7.33;;
17991;SDS011;9121;50.926;5.340;2022-10-03T00:39:47;19.13;;;7.53;;
17991;SDS011;9121;50.926;5.340;2022-10-03T00:42:44;18.10;;;7.63;;
17991;SDS011;9121;50.926;5.340;2022-10-03T00:45:42;26.30;;;7.93;;
17991;SDS011;9121;50.926;5.340;2022-10-03T00:48:25;27.47;;;8.17;;
17991;SDS011;9121;50.926;5.340;2022-10-03T00:51:24;29.57;;;8.90;;
17991;SDS011;9121;50.926;5.340;2022-10-03T00:54:03;26.93;;;9.80;;
17991;SDS011;9121;50.926;5.340;2022-10-03T00:56:52;26.53;;;9.73;;
17991;SDS011;9121;50.926;5.340;2022-10-03T00:59:32;26.30;;;8.90;;
17991;SDS011;9121;50.926;5.340;2022-10-03T01:02:16;33.83;;;8.87;;
17991;SDS011;9121;50.926;5.340;2022-10-03T01:04:53;22.87;;;8.70;;
17991;SDS011;9121;50.926;5.340;2022-10-03T01:07:39;29.60;;;10.23;;
17991;SDS011;9121;50.926;5.340;2022-10-03T01:10:33;34.37;;;10.10;;
17991;SDS011;9121;50.926;5.340;2022-10-03T01:13:13;21.67;;;8.63;;
17991;SDS011;9121;50.926;5.340;2022-10-03T01:15:51;22.80;;;8.77;;
17991;SDS011;9121;50.926;5.340;2022-10-03T01:18:30;29.27;;;9.97;;
17991;SDS011;9121;50.926;5.340;2022-10-03T01:21:07;23.23;;;9.17;;
17991;SDS011;9121;50.926;5.340;2022-10-03T01:24:00;24.20;;;9.30;;
17991;SDS011;9121;50.926;5.340;2022-10-03T01:26:53;21.03;;;9.27;;
17991;SDS011;9121;50.926;5.340;2022-10-03T01:29:32;26.67;;;9.50;;
17991;SDS011;9121;50.926;5.340;2022-10-03T01:32:24;24.57;;;9.40;;
17991;SDS011;9121;50.926;5.340;2022-10-03T01:34:57;20.43;;;9.03;;
17991;SDS011;9121;50.926;5.340;2022-10-03T01:37:35;27.93;;;9.33;;
17991;SDS011;9121;50.926;5.340;2022-10-03T01:40:12;21.83;;;8.93;;
17991;SDS011;9121;50.926;5.340;2022-10-03T01:42:52;22.43;;;9.80;;
17991;SDS011;9121;50.926;5.340;2022-10-03T01:45:34;25.10;;;9.90;;
17991;SDS011;9121;50.926;5.340;2022-10-03T01:48:13;24.47;;;9.23;;
17991;SDS011;9121;50.926;5.340;2022-10-03T01:50:47;23.30;;;8.40;;
17991;SDS011;9121;50.926;5.340;2022-10-03T01:53:24;20.30;;;9.07;;
17991;SDS011;9121;50.926;5.340;2022-10-03T01:55:59;25.33;;;9.47;;
17991;SDS011;9121;50.926;5.340;2022-10-03T01:58:35;31.90;;;9.90;;
17991;SDS011;9121;50.926;5.340;2022-10-03T02:01:14;24.70;;;9.80;;
17991;SDS011;9121;50.926;5.340;2022-10-03T02:03:50;27.27;;;9.47;;
17991;SDS011;9121;50.926;5.340;2022-10-03T02:06:23;23.77;;;10.50;;
17991;SDS011;9121;50.926;5.340;2022-10-03T02:08:59;24.47;;;9.47;;
17991;SDS011;9121;50.926;5.340;2022-10-03T02:11:33;27.57;;;9.20;;
17991;SDS011;9121;50.926;5.340;2022-10-03T02:14:15;24.70;;;10.07;;
17991;SDS011;9121;50.926;5.340;2022-10-03T02:16:54;24.83;;;9.47;;
17991;SDS011;9121;50.926;5.340;2022-10-03T02:19:25;25.83;;;10.57;;
17991;SDS011;9121;50.926;5.340;2022-10-03T02:21:56;23.80;;;9.37;;
17991;SDS011;9121;50.926;5.340;2022-10-03T02:24:36;26.33;;;9.20;;
17991;SDS011;9121;50.926;5.340;2022-10-03T02:27:17;22.23;;;10.17;;
17991;SDS011;9121;50.926;5.340;2022-10-03T02:33:09;20.67;;;9.30;;
17991;SDS011;9121;50.926;5.340;2022-10-03T02:36:06;25.23;;;10.33;;
17991;SDS011;9121;50.926;5.340;2022-10-03T02:39:11;25.90;;;10.60;;
17991;SDS011;9121;50.926;5.340;2022-10-03T02:42:01;20.30;;;9.37;;
17991;SDS011;9121;50.926;5.340;2022-10-03T02:48:11;20.33;;;11.43;;
17991;SDS011;9121;50.926;5.340;2022-10-03T02:51:15;29.57;;;11.03;;
17991;SDS011;9121;50.926;5.340;2022-10-03T02:54:17;22.00;;;10.70;;
17991;SDS011;9121;50.926;5.340;2022-10-03T03:00:28;23.40;;;9.90;;
17991;SDS011;9121;50.926;5.340;2022-10-03T03:15:29;23.33;;;9.80;;
17991;SDS011;9121;50.926;5.340;2022-10-03T03:18:27;24.77;;;10.73;;
17991;SDS011;9121;50.926;5.340;2022-10-03T03:21:14;31.10;;;11.30;;
17991;SDS011;9121;50.926;5.340;2022-10-03T03:23:52;25.97;;;10.10;;
17991;SDS011;9121;50.926;5.340;2022-10-03T03:26:59;21.03;;;9.77;;
17991;SDS011;9121;50.926;5.340;2022-10-03T03:29:41;29.10;;;10.83;;
17991;SDS011;9121;50.926;5.340;2022-10-03T03:32:20;17.43;;;9.60;;
17991;SDS011;9121;50.926;5.340;2022-10-03T03:34:58;24.87;;;10.60;;
17991;SDS011;9121;50.926;5.340;2022-10-03T03:37:38;18.80;;;9.77;;
17991;SDS011;9121;50.926;5.340;2022-10-03T03:40:19;21.23;;;10.17;;
17991;SDS011;9121;50.926;5.340;2022-10-03T03:43:09;22.53;;;10.20;;
17991;SDS011;9121;50.926;5.340;2022-10-03T03:45:53;24.20;;;10.37;;
17991;SDS011;9121;50.926;5.340;2022-10-03T03:48:34;22.90;;;10.47;;
17991;SDS011;9121;50.926;5.340;2022-10-03T03:51:22;25.47;;;9.83;;
17991;SDS011;9121;50.926;5.340;2022-10-03T03:57:12;23.90;;;10.20;;
17991;SDS011;9121;50.926;5.340;2022-10-03T03:59:57;26.07;;;10.63;;
17991;SDS011;9121;50.926;5.340;2022-10-03T04:02:41;22.33;;;10.23;;
17991;SDS011;9121;50.926;5.340;2022-10-03T04:05:22;26.60;;;10.30;;
17991;SDS011;9121;50.926;5.340;2022-10-03T04:08:05;21.47;;;10.03;;
17991;SDS011;9121;50.926;5.340;2022-10-03T04:10:45;22.10;;;10.60;;
17991;SDS011;9121;50.926;5.340;2022-10-03T04:13:23;21.23;;;10.13;;
17991;SDS011;9121;50.926;5.340;2022-10-03T04:19:06;25.03;;;10.23;;
17991;SDS011;9121;50.926;5.340;2022-10-03T04:21:44;23.10;;;10.00;;
17991;SDS011;9121;50.926;5.340;2022-10-03T04:24:50;28.17;;;9.67;;
17991;SDS011;9121;50.926;5.340;2022-10-03T04:27:39;20.60;;;9.60;;
17991;SDS011;9121;50.926;5.340;2022-10-03T04:30:20;21.50;;;9.53;;
17991;SDS011;9121;50.926;5.340;2022-10-03T04:33:03;42.10;;;12.00;;
17991;SDS011;9121;50.926;5.340;2022-10-03T04:35:47;20.20;;;8.73;;
17991;SDS011;9121;50.926;5.340;2022-10-03T04:38:38;25.57;;;9.50;;
17991;SDS011;9121;50.926;5.340;2022-10-03T04:41:12;26.63;;;11.40;;
17991;SDS011;9121;50.926;5.340;2022-10-03T04:43:53;34.13;;;11.37;;
17991;SDS011;9121;50.926;5.340;2022-10-03T04:46:28;24.70;;;9.63;;
17991;SDS011;9121;50.926;5.340;2022-10-03T04:49:02;24.80;;;10.67;;
17991;SDS011;9121;50.926;5.340;2022-10-03T04:51:43;25.13;;;9.83;;
17991;SDS011;9121;50.926;5.340;2022-10-03T04:54:21;24.77;;;10.07;;
17991;SDS011;9121;50.926;5.340;2022-10-03T04:57:00;20.17;;;9.90;;
17991;SDS011;9121;50.926;5.340;2022-10-03T04:59:35;24.73;;;9.90;;
17991;SDS011;9121;50.926;5.340;2022-10-03T05:08:01;27.60;;;10.93;;
17991;SDS011;9121;50.926;5.340;2022-10-03T05:10:38;24.53;;;9.47;;
17991;SDS011;9121;50.926;5.340;2022-10-03T05:13:17;26.60;;;10.00;;
17991;SDS011;9121;50.926;5.340;2022-10-03T05:15:55;18.17;;;10.43;;
17991;SDS011;9121;50.926;5.340;2022-10-03T05:18:31;19.67;;;9.53;;
17991;SDS011;9121;50.926;5.340;2022-10-03T05:21:08;24.40;;;10.00;;
17991;SDS011;9121;50.926;5.340;2022-10-03T05:23:45;23.60;;;10.67;;
17991;SDS011;9121;50.926;5.340;2022-10-03T05:26:21;26.23;;;10.57;;
17991;SDS011;9121;50.926;5.340;2022-10-03T05:29:00;25.37;;;10.77;;
17991;SDS011;9121;50.926;5.340;2022-10-03T05:31:34;27.53;;;9.60;;
17991;SDS011;9121;50.926;5.340;2022-10-03T05:34:15;24.27;;;9.33;;
17991;SDS011;9121;50.926;5.340;2022-10-03T05:39:52;23.00;;;10.77;;
17991;SDS011;9121;50.926;5.340;2022-10-03T05:42:28;28.43;;;10.80;;
17991;SDS011;9121;50.926;5.340;2022-10-03T05:45:18;25.87;;;10.43;;
17991;SDS011;9121;50.926;5.340;2022-10-03T05:47:57;27.13;;;11.70;;
17991;SDS011;9121;50.926;5.340;2022-10-03T05:53:48;26.07;;;11.17;;
17991;SDS011;9121;50.926;5.340;2022-10-03T05:56:47;20.53;;;10.03;;
17991;SDS011;9121;50.926;5.340;2022-10-03T05:59:51;23.27;;;10.63;;
17991;SDS011;9121;50.926;5.340;2022-10-03T06:02:44;23.40;;;10.67;;
17991;SDS011;9121;50.926;5.340;2022-10-03T06:05:26;24.40;;;10.17;;
17991;SDS011;9121;50.926;5.340;2022-10-03T06:08:11;34.43;;;11.07;;
17991;SDS011;9121;50.926;5.340;2022-10-03T06:11:02;23.63;;;10.80;;
17991;SDS011;9121;50.926;5.340;2022-10-03T06:14:01;29.90;;;10.30;;
17991;SDS011;9121;50.926;5.340;2022-10-03T06:16:49;29.37;;;11.07;;
17991;SDS011;9121;50.926;5.340;2022-10-03T06:19:29;23.20;;;10.37;;
17991;SDS011;9121;50.926;5.340;2022-10-03T06:25:14;19.20;;;9.80;;
17991;SDS011;9121;50.926;5.340;2022-10-03T06:28:05;24.63;;;9.80;;
17991;SDS011;9121;50.926;5.340;2022-10-03T06:31:20;26.17;;;10.03;;
17991;SDS011;9121;50.926;5.340;2022-10-03T06:37:22;26.53;;;10.30;;
17991;SDS011;9121;50.926;5.340;2022-10-03T06:43:12;23.33;;;10.70;;
17991;SDS011;9121;50.926;5.340;2022-10-03T06:46:10;23.10;;;10.07;;
17991;SDS011;9121;50.926;5.340;2022-10-03T06:49:17;17.17;;;9.90;;
17991;SDS011;9121;50.926;5.340;2022-10-03T06:52:15;20.47;;;10.40;;
17991;SDS011;9121;50.926;5.340;2022-10-03T06:55:20;21.13;;;10.27;;
17991;SDS011;9121;50.926;5.340;2022-10-03T06:58:26;25.17;;;9.57;;
17991;SDS011;9121;50.926;5.340;2022-10-03T07:01:23;19.47;;;10.60;;
17991;SDS011;9121;50.926;5.340;2022-10-03T07:04:10;21.47;;;10.33;;
17991;SDS011;9121;50.926;5.340;2022-10-03T07:07:19;20.27;;;9.97;;
17991;SDS011;9121;50.926;5.340;2022-10-03T07:10:23;20.63;;;10.27;;
17991;SDS011;9121;50.926;5.340;2022-10-03T07:13:03;23.83;;;10.03;;
17991;SDS011;9121;50.926;5.340;2022-10-03T07:22:19;21.57;;;9.97;;
17991;SDS011;9121;50.926;5.340;2022-10-03T07:28:30;17.60;;;9.03;;
17991;SDS011;9121;50.926;5.340;2022-10-03T07:31:13;21.67;;;9.23;;
17991;SDS011;9121;50.926;5.340;2022-10-03T07:34:11;16.70;;;9.20;;
17991;SDS011;9121;50.926;5.340;2022-10-03T07:36:55;20.20;;;8.60;;
17991;SDS011;9121;50.926;5.340;2022-10-03T07:42:54;22.93;;;8.93;;
17991;SDS011;9121;50.926;5.340;2022-10-03T07:45:45;17.97;;;9.23;;
17991;SDS011;9121;50.926;5.340;2022-10-03T07:48:50;19.53;;;8.67;;
17991;SDS011;9121;50.926;5.340;2022-10-03T07:51:37;22.47;;;8.63;;
17991;SDS011;9121;50.926;5.340;2022-10-03T07:54:28;17.63;;;9.07;;
17991;SDS011;9121;50.926;5.340;2022-10-03T07:57:14;18.13;;;9.13;;
17991;SDS011;9121;50.926;5.340;2022-10-03T08:06:04;21.37;;;9.37;;
17991;SDS011;9121;50.926;5.340;2022-10-03T08:11:55;25.15;;;9.60;;
17991;SDS011;9121;50.926;5.340;2022-10-03T08:14:46;19.27;;;9.20;;
17991;SDS011;9121;50.926;5.340;2022-10-03T08:17:34;16.63;;;7.10;;
17991;SDS011;9121;50.926;5.340;2022-10-03T08:20:24;16.73;;;7.15;;
17991;SDS011;9121;50.926;5.340;2022-10-03T08:23:09;18.23;;;8.18;;
17991;SDS011;9121;50.926;5.340;2022-10-03T08:25:51;21.73;;;8.05;;
17991;SDS011;9121;50.926;5.340;2022-10-03T08:28:34;19.63;;;8.80;;
17991;SDS011;9121;50.926;5.340;2022-10-03T08:31:20;26.48;;;9.35;;
17991;SDS011;9121;50.926;5.340;2022-10-03T08:34:10;17.23;;;7.82;;
17991;SDS011;9121;50.926;5.340;2022-10-03T08:37:04;21.92;;;8.98;;
17991;SDS011;9121;50.926;5.340;2022-10-03T08:40:01;28.80;;;9.00;;
17991;SDS011;9121;50.926;5.340;2022-10-03T08:46:05;18.65;;;7.88;;
17991;SDS011;9121;50.926;5.340;2022-10-03T08:48:48;22.13;;;7.38;;
17991;SDS011;9121;50.926;5.340;2022-10-03T08:57:30;14.77;;;7.22;;
17991;SDS011;9121;50.926;5.340;2022-10-03T09:00:24;22.15;;;7.43;;
17991;SDS011;9121;50.926;5.340;2022-10-03T09:03:06;17.83;;;6.95;;
17991;SDS011;9121;50.926;5.340;2022-10-03T09:12:19;20.10;;;7.72;;
17991;SDS011;9121;50.926;5.340;2022-10-03T09:18:25;24.33;;;7.18;;
17991;SDS011;9121;50.926;5.340;2022-10-03T09:21:32;20.25;;;7.90;;
17991;SDS011;9121;50.926;5.340;2022-10-03T09:27:32;14.25;;;5.80;;
17991;SDS011;9121;50.926;5.340;2022-10-03T09:30:19;22.75;;;6.60;;
17991;SDS011;9121;50.926;5.340;2022-10-03T09:33:11;14.27;;;6.10;;
17991;SDS011;9121;50.926;5.340;2022-10-03T09:45:14;19.10;;;6.03;;
17991;SDS011;9121;50.926;5.340;2022-10-03T09:48:11;15.98;;;4.70;;
17991;SDS011;9121;50.926;5.340;2022-10-03T09:51:05;19.40;;;6.00;;
17991;SDS011;9121;50.926;5.340;2022-10-03T10:00:19;13.25;;;4.00;;
17991;SDS011;9121;50.926;5.340;2022-10-03T10:05:53;17.25;;;4.63;;
17991;SDS011;9121;50.926;5.340;2022-10-03T10:08:54;16.73;;;4.80;;
17991;SDS011;9121;50.926;5.340;2022-10-03T10:24:37;11.60;;;3.63;;
17991;SDS011;9121;50.926;5.340;2022-10-03T10:27:37;16.48;;;3.55;;
17991;SDS011;9121;50.926;5.340;2022-10-03T10:33:48;13.20;;;3.80;;
17991;SDS011;9121;50.926;5.340;2022-10-03T10:46:20;13.13;;;3.53;;
17991;SDS011;9121;50.926;5.340;2022-10-03T10:49:27;14.52;;;2.80;;
17991;SDS011;9121;50.926;5.340;2022-10-03T10:52:31;11.20;;;2.78;;
17991;SDS011;9121;50.926;5.340;2022-10-03T10:55:38;10.35;;;2.60;;
17991;SDS011;9121;50.926;5.340;2022-10-03T11:02:03;10.65;;;2.70;;
17991;SDS011;9121;50.926;5.340;2022-10-03T11:08:12;14.57;;;3.05;;
17991;SDS011;9121;50.926;5.340;2022-10-03T11:11:11;41.55;;;4.25;;
17991;SDS011;9121;50.926;5.340;2022-10-03T11:17:26;20.23;;;2.63;;
17991;SDS011;9121;50.926;5.340;2022-10-03T11:23:34;17.35;;;3.05;;
17991;SDS011;9121;50.926;5.340;2022-10-03T11:36:13;10.45;;;2.05;;
17991;SDS011;9121;50.926;5.340;2022-10-03T11:38:56;11.82;;;2.25;;
17991;SDS011;9121;50.926;5.340;2022-10-03T11:41:34;11.57;;;2.10;;
17991;SDS011;9121;50.926;5.340;2022-10-03T11:44:17;11.15;;;2.25;;
17991;SDS011;9121;50.926;5.340;2022-10-03T11:46:52;10.52;;;2.15;;
17991;SDS011;9121;50.926;5.340;2022-10-03T11:49:42;11.13;;;2.30;;
17991;SDS011;9121;50.926;5.340;2022-10-03T11:52:26;10.05;;;1.95;;
17991;SDS011;9121;50.926;5.340;2022-10-03T11:55:19;12.02;;;2.38;;
17991;SDS011;9121;50.926;5.340;2022-10-03T11:57:57;8.13;;;2.05;;
17991;SDS011;9121;50.926;5.340;2022-10-03T12:00:38;10.10;;;2.25;;
17991;SDS011;9121;50.926;5.340;2022-10-03T12:03:15;8.13;;;2.15;;
17991;SDS011;9121;50.926;5.340;2022-10-03T12:05:49;10.85;;;1.92;;
17991;SDS011;9121;50.926;5.340;2022-10-03T12:08:36;18.30;;;2.53;;
17991;SDS011;9121;50.926;5.340;2022-10-03T12:11:22;8.27;;;2.00;;
17991;SDS011;9121;50.926;5.340;2022-10-03T12:16:48;10.55;;;2.58;;
17991;SDS011;9121;50.926;5.340;2022-10-03T12:19:28;8.95;;;2.28;;
17991;SDS011;9121;50.926;5.340;2022-10-03T12:22:01;11.00;;;2.20;;
17991;SDS011;9121;50.926;5.340;2022-10-03T12:24:36;11.02;;;2.10;;
17991;SDS011;9121;50.926;5.340;2022-10-03T12:27:10;9.00;;;1.95;;
17991;SDS011;9121;50.926;5.340;2022-10-03T12:29:45;8.40;;;1.98;;
17991;SDS011;9121;50.926;5.340;2022-10-03T12:32:27;6.45;;;1.80;;
17991;SDS011;9121;50.926;5.340;2022-10-03T12:35:11;10.40;;;2.13;;
17991;SDS011;9121;50.926;5.340;2022-10-03T12:37:59;10.18;;;1.95;;
17991;SDS011;9121;50.926;5.340;2022-10-03T12:40:37;12.15;;;2.50;;
17991;SDS011;9121;50.926;5.340;2022-10-03T12:43:11;7.85;;;1.52;;
17991;SDS011;9121;50.926;5.340;2022-10-03T12:45:49;7.43;;;1.70;;
17991;SDS011;9121;50.926;5.340;2022-10-03T12:48:37;5.63;;;1.60;;
17991;SDS011;9121;50.926;5.340;2022-10-03T12:51:17;6.47;;;1.60;;
17991;SDS011;9121;50.926;5.340;2022-10-03T12:53:54;7.75;;;1.75;;
17991;SDS011;9121;50.926;5.340;2022-10-03T12:56:33;114.93;;;7.18;;
17991;SDS011;9121;50.926;5.340;2022-10-03T12:59:12;12.38;;;2.20;;
17991;SDS011;9121;50.926;5.340;2022-10-03T13:01:57;9.68;;;2.38;;
17991;SDS011;9121;50.926;5.340;2022-10-03T13:04:44;6.40;;;1.70;;
17991;SDS011;9121;50.926;5.340;2022-10-03T13:07:21;4.22;;;1.60;;
17991;SDS011;9121;50.926;5.340;2022-10-03T13:10:00;8.43;;;1.88;;
17991;SDS011;9121;50.926;5.340;2022-10-03T13:12:35;8.70;;;2.28;;
17991;SDS011;9121;50.926;5.340;2022-10-03T13:15:36;7.63;;;1.85;;
17991;SDS011;9121;50.926;5.340;2022-10-03T13:18:25;9.65;;;2.28;;
17991;SDS011;9121;50.926;5.340;2022-10-03T13:21:01;8.25;;;2.08;;
17991;SDS011;9121;50.926;5.340;2022-10-03T13:23:35;9.00;;;2.42;;
17991;SDS011;9121;50.926;5.340;2022-10-03T13:26:13;7.28;;;1.75;;
17991;SDS011;9121;50.926;5.340;2022-10-03T13:28:53;5.28;;;2.13;;
17991;SDS011;9121;50.926;5.340;2022-10-03T13:31:38;10.85;;;2.42;;
17991;SDS011;9121;50.926;5.340;2022-10-03T13:34:20;6.55;;;2.15;;
17991;SDS011;9121;50.926;5.340;2022-10-03T13:36:52;12.20;;;2.20;;
17991;SDS011;9121;50.926;5.340;2022-10-03T13:39:22;6.68;;;1.98;;
17991;SDS011;9121;50.926;5.340;2022-10-03T13:41:57;9.07;;;1.70;;
17991;SDS011;9121;50.926;5.340;2022-10-03T13:44:36;8.50;;;2.03;;
17991;SDS011;9121;50.926;5.340;2022-10-03T13:47:13;6.05;;;1.90;;
17991;SDS011;9121;50.926;5.340;2022-10-03T13:49:53;11.25;;;2.35;;
17991;SDS011;9121;50.926;5.340;2022-10-03T13:52:25;7.90;;;1.90;;
17991;SDS011;9121;50.926;5.340;2022-10-03T13:55:08;8.93;;;1.98;;
17991;SDS011;9121;50.926;5.340;2022-10-03T13:57:49;5.38;;;1.42;;
17991;SDS011;9121;50.926;5.340;2022-10-03T14:00:27;10.32;;;2.10;;
17991;SDS011;9121;50.926;5.340;2022-10-03T14:03:04;6.78;;;1.85;;
17991;SDS011;9121;50.926;5.340;2022-10-03T14:06:05;16.92;;;1.90;;
17991;SDS011;9121;50.926;5.340;2022-10-03T14:08:50;8.23;;;1.55;;
17991;SDS011;9121;50.926;5.340;2022-10-03T14:11:41;9.02;;;1.80;;
17991;SDS011;9121;50.926;5.340;2022-10-03T14:17:21;9.20;;;1.80;;
17991;SDS011;9121;50.926;5.340;2022-10-03T14:20:01;5.93;;;1.40;;
17991;SDS011;9121;50.926;5.340;2022-10-03T14:22:43;2.80;;;1.55;;
17991;SDS011;9121;50.926;5.340;2022-10-03T14:25:23;12.25;;;1.63;;
17991;SDS011;9121;50.926;5.340;2022-10-03T14:27:53;7.03;;;2.00;;
17991;SDS011;9121;50.926;5.340;2022-10-03T14:30:25;8.55;;;1.58;;
17991;SDS011;9121;50.926;5.340;2022-10-03T14:33:01;5.38;;;1.63;;
17991;SDS011;9121;50.926;5.340;2022-10-03T14:35:45;6.28;;;1.60;;
17991;SDS011;9121;50.926;5.340;2022-10-03T14:38:24;10.00;;;2.15;;
17991;SDS011;9121;50.926;5.340;2022-10-03T14:41:14;7.70;;;1.90;;
17991;SDS011;9121;50.926;5.340;2022-10-03T14:43:46;4.63;;;1.67;;
17991;SDS011;9121;50.926;5.340;2022-10-03T14:46:19;10.55;;;2.65;;
17991;SDS011;9121;50.926;5.340;2022-10-03T14:48:49;7.57;;;2.05;;
17991;SDS011;9121;50.926;5.340;2022-10-03T14:51:24;7.88;;;2.40;;
17991;SDS011;9121;50.926;5.340;2022-10-03T14:53:56;7.85;;;1.67;;
17991;SDS011;9121;50.926;5.340;2022-10-03T14:56:27;6.03;;;1.80;;
17991;SDS011;9121;50.926;5.340;2022-10-03T14:58:56;7.88;;;1.60;;
17991;SDS011;9121;50.926;5.340;2022-10-03T15:01:28;11.77;;;2.75;;
17991;SDS011;9121;50.926;5.340;2022-10-03T15:03:57;5.95;;;1.67;;
17991;SDS011;9121;50.926;5.340;2022-10-03T15:06:32;13.73;;;4.70;;
17991;SDS011;9121;50.926;5.340;2022-10-03T15:09:21;20.38;;;6.30;;
17991;SDS011;9121;50.926;5.340;2022-10-03T15:11:58;25.90;;;2.92;;
17991;SDS011;9121;50.926;5.340;2022-10-03T15:14:32;8.82;;;1.80;;
17991;SDS011;9121;50.926;5.340;2022-10-03T15:17:04;35.88;;;3.88;;
17991;SDS011;9121;50.926;5.340;2022-10-03T15:19:42;23.63;;;2.70;;
17991;SDS011;9121;50.926;5.340;2022-10-03T15:22:18;16.90;;;2.13;;
17991;SDS011;9121;50.926;5.340;2022-10-03T15:24:53;7.85;;;1.60;;
17991;SDS011;9121;50.926;5.340;2022-10-03T15:27:24;8.18;;;1.90;;
17991;SDS011;9121;50.926;5.340;2022-10-03T15:29:53;10.30;;;2.10;;
17991;SDS011;9121;50.926;5.340;2022-10-03T15:32:26;12.95;;;1.88;;
17991;SDS011;9121;50.926;5.340;2022-10-03T15:34:59;8.80;;;2.08;;
17991;SDS011;9121;50.926;5.340;2022-10-03T15:37:28;4.70;;;1.70;;
17991;SDS011;9121;50.926;5.340;2022-10-03T15:40:04;11.63;;;2.22;;
17991;SDS011;9121;50.926;5.340;2022-10-03T15:42:42;7.18;;;2.15;;
17991;SDS011;9121;50.926;5.340;2022-10-03T15:45:16;7.45;;;1.33;;
17991;SDS011;9121;50.926;5.340;2022-10-03T15:47:50;5.72;;;1.27;;
17991;SDS011;9121;50.926;5.340;2022-10-03T15:50:18;11.80;;;2.13;;
17991;SDS011;9121;50.926;5.340;2022-10-03T15:52:49;8.00;;;2.05;;
17991;SDS011;9121;50.926;5.340;2022-10-03T15:55:20;7.25;;;1.90;;
17991;SDS011;9121;50.926;5.340;2022-10-03T15:57:52;5.63;;;1.75;;
17991;SDS011;9121;50.926;5.340;2022-10-03T16:00:28;7.95;;;1.83;;
17991;SDS011;9121;50.926;5.340;2022-10-03T16:03:02;9.32;;;1.67;;
17991;SDS011;9121;50.926;5.340;2022-10-03T16:05:36;7.90;;;1.98;;
17991;SDS011;9121;50.926;5.340;2022-10-03T16:08:13;10.23;;;2.05;;
17991;SDS011;9121;50.926;5.340;2022-10-03T16:10:47;9.40;;;2.55;;
17991;SDS011;9121;50.926;5.340;2022-10-03T16:13:24;8.32;;;2.33;;
17991;SDS011;9121;50.926;5.340;2022-10-03T16:16:01;9.07;;;2.55;;
17991;SDS011;9121;50.926;5.340;2022-10-03T16:18:39;12.70;;;3.00;;
17991;SDS011;9121;50.926;5.340;2022-10-03T16:21:30;17.30;;;2.17;;
17991;SDS011;9121;50.926;5.340;2022-10-03T16:24:06;23.50;;;3.67;;
17991;SDS011;9121;50.926;5.340;2022-10-03T16:26:47;10.57;;;2.42;;
17991;SDS011;9121;50.926;5.340;2022-10-03T16:29:18;8.77;;;2.13;;
17991;SDS011;9121;50.926;5.340;2022-10-03T16:31:49;15.38;;;3.20;;
17991;SDS011;9121;50.926;5.340;2022-10-03T16:34:21;13.27;;;2.65;;
17991;SDS011;9121;50.926;5.340;2022-10-03T16:36:50;11.68;;;2.30;;
17991;SDS011;9121;50.926;5.340;2022-10-03T16:39:19;8.38;;;3.13;;
17991;SDS011;9121;50.926;5.340;2022-10-03T16:41:49;11.68;;;2.67;;
17991;SDS011;9121;50.926;5.340;2022-10-03T16:44:21;12.30;;;2.45;;
17991;SDS011;9121;50.926;5.340;2022-10-03T16:46:51;12.30;;;2.75;;
17991;SDS011;9121;50.926;5.340;2022-10-03T16:49:27;14.07;;;2.90;;
17991;SDS011;9121;50.926;5.340;2022-10-03T16:52:17;7.78;;;3.13;;
17991;SDS011;9121;50.926;5.340;2022-10-03T16:54:48;10.77;;;3.42;;
17991;SDS011;9121;50.926;5.340;2022-10-03T16:57:23;14.30;;;3.90;;
17991;SDS011;9121;50.926;5.340;2022-10-03T16:59:58;10.63;;;3.45;;
17991;SDS011;9121;50.926;5.340;2022-10-03T17:02:30;9.73;;;3.17;;
17991;SDS011;9121;50.926;5.340;2022-10-03T17:05:02;12.98;;;3.08;;
17991;SDS011;9121;50.926;5.340;2022-10-03T17:07:35;12.85;;;3.38;;
17991;SDS011;9121;50.926;5.340;2022-10-03T17:10:16;13.73;;;3.42;;
17991;SDS011;9121;50.926;5.340;2022-10-03T17:12:52;12.70;;;3.25;;
17991;SDS011;9121;50.926;5.340;2022-10-03T17:15:25;14.27;;;3.60;;
17991;SDS011;9121;50.926;5.340;2022-10-03T17:17:55;9.98;;;3.35;;
17991;SDS011;9121;50.926;5.340;2022-10-03T17:20:32;9.88;;;3.28;;
17991;SDS011;9121;50.926;5.340;2022-10-03T17:23:06;24.13;;;4.95;;
17991;SDS011;9121;50.926;5.340;2022-10-03T17:25:43;11.27;;;3.20;;
17991;SDS011;9121;50.926;5.340;2022-10-03T17:28:20;16.60;;;3.80;;
17991;SDS011;9121;50.926;5.340;2022-10-03T17:30:56;19.42;;;4.05;;
17991;SDS011;9121;50.926;5.340;2022-10-03T17:33:29;13.55;;;3.70;;
17991;SDS011;9121;50.926;5.340;2022-10-03T17:36:09;30.90;;;4.72;;
17991;SDS011;9121;50.926;5.340;2022-10-03T17:38:58;10.80;;;4.25;;
17991;SDS011;9121;50.926;5.340;2022-10-03T17:41:30;15.15;;;4.30;;
17991;SDS011;9121;50.926;5.340;2022-10-03T17:44:10;13.93;;;5.55;;
17991;SDS011;9121;50.926;5.340;2022-10-03T17:46:45;23.58;;;8.20;;
17991;SDS011;9121;50.926;5.340;2022-10-03T17:49:24;15.45;;;5.43;;
17991;SDS011;9121;50.926;5.340;2022-10-03T17:52:13;16.70;;;6.25;;
17991;SDS011;9121;50.926;5.340;2022-10-03T17:54:43;18.35;;;7.13;;
17991;SDS011;9121;50.926;5.340;2022-10-03T17:57:14;18.15;;;7.35;;
17991;SDS011;9121;50.926;5.340;2022-10-03T17:59:46;16.73;;;4.70;;
17991;SDS011;9121;50.926;5.340;2022-10-03T18:02:21;14.77;;;4.82;;
17991;SDS011;9121;50.926;5.340;2022-10-03T18:04:55;16.15;;;5.20;;
17991;SDS011;9121;50.926;5.340;2022-10-03T18:07:37;14.57;;;4.88;;
17991;SDS011;9121;50.926;5.340;2022-10-03T18:10:14;30.17;;;5.35;;
17991;SDS011;9121;50.926;5.340;2022-10-03T18:12:46;14.50;;;5.10;;
17991;SDS011;9121;50.926;5.340;2022-10-03T18:18:26;17.60;;;5.40;;
17991;SDS011;9121;50.926;5.340;2022-10-03T18:21:14;17.33;;;5.85;;
17991;SDS011;9121;50.926;5.340;2022-10-03T18:23:54;15.20;;;5.47;;
17991;SDS011;9121;50.926;5.340;2022-10-03T18:26:41;12.25;;;5.20;;
17991;SDS011;9121;50.926;5.340;2022-10-03T18:32:09;12.85;;;5.30;;
17991;SDS011;9121;50.926;5.340;2022-10-03T18:34:41;17.92;;;6.38;;
17991;SDS011;9121;50.926;5.340;2022-10-03T18:37:16;17.17;;;6.25;;
17991;SDS011;9121;50.926;5.340;2022-10-03T18:39:59;15.43;;;6.00;;
17991;SDS011;9121;50.926;5.340;2022-10-03T18:42:29;17.85;;;5.63;;
17991;SDS011;9121;50.926;5.340;2022-10-03T18:44:59;16.52;;;5.50;;
17991;SDS011;9121;50.926;5.340;2022-10-03T18:47:28;19.05;;;6.10;;
17991;SDS011;9121;50.926;5.340;2022-10-03T18:50:01;22.02;;;6.50;;
17991;SDS011;9121;50.926;5.340;2022-10-03T18:52:36;14.38;;;5.53;;
17991;SDS011;9121;50.926;5.340;2022-10-03T18:55:15;16.77;;;6.05;;
17991;SDS011;9121;50.926;5.340;2022-10-03T18:57:47;19.40;;;5.97;;
17991;SDS011;9121;50.926;5.340;2022-10-03T19:00:20;17.17;;;6.30;;
17991;SDS011;9121;50.926;5.340;2022-10-03T19:02:51;16.00;;;5.70;;
17991;SDS011;9121;50.926;5.340;2022-10-03T19:05:22;12.63;;;6.03;;
17991;SDS011;9121;50.926;5.340;2022-10-03T19:07:58;20.40;;;6.75;;
17991;SDS011;9121;50.926;5.340;2022-10-03T19:10:39;18.50;;;6.70;;
17991;SDS011;9121;50.926;5.340;2022-10-03T19:13:19;16.38;;;6.88;;